METAR Data
IDs: Format: Raw Decoded Include TAF

Data at: 0035 UTC 25 Apr 2019

METAR for:KCID (Cedar Rapids/E Iowao, IA, US)
Text:KCID 242352Z 15007KT 10SM CLR 17/07 A2981 RMK AO2 SLP096 T01670067 10178 20139 58012
Temperature: 16.7°C ( 62°F)
Dewpoint: 6.7°C ( 44°F) [RH = 52%]
Pressure (altimeter):29.81 inches Hg (1009.6 mb) [Sea level pressure: 1009.6 mb]
Winds:from the SSE (150 degrees) at 8 MPH (7 knots; 3.6 m/s)
Visibility:10 or more sm (16+ km)
Ceiling:at least 12,000 feet AGL
Clouds:sky clear below 12,000 feet AGL